Trout, West Virginia
Current Conditions -  °F | °C
As of 6:35 PM on Friday 19 Dec 2014 (Local Time) from KLWB Reporting Station
Clear Clear  
Wind Chill: 29°   Ceiling: Unl
Heat Index: 29°   Visibility: 10mi
Dew Point: 22°   Wind: 3mph
Humidity: 75%   Direction: 280°W
Pressure: 30.17"   Gusts: NA
Location:  37.9493°N, 80.5132°W
Report Text: KLWB 192335Z AUTO 28003KT 10SM CLR M02/M06 A3017 RMK AO2 T10171056
Loading
Personal Weather Stations






























Interactive Weather Map New forecast layout! Learn more

10-Day Weather Forecast

Advertisements
Track Severe Weather on mobile